Jacksonville, OR (97530)

1:29 PM PDT on August 29, 2014 (GMT -0700)
RVHPA Longsword Winery | Change Station
CLOSE
Current Station
Personal Weather Station
Location: Jacksonville, OR
Elevation: 1457 ft
Nearby Weather Stations

Elev 1457 ft 42.23 °N, 123.06 °W | Updated 19 seconds ago

Clear
Clear
85.8 °F
Feels Like 83 °F
N
15.0
Wind Variable Wind from West
Gusts 17.0 mph

Today
High -- | Low -- °F
--% Chance of Precip.
Yesterday
High -- | Low -- °F
Precip. -- in
6:34 AM 7:50 PM
Waxing Crescent, 16% visible
Pressure 29.89 in
Visibility 10.0 miles
Clouds Clear
Heat Index 83 °F
Dew Point Not available.
Humidity Not available.
Rainfall 0.00 in
Snow Depth Not available.
UV 9 out of 12
Pollen 6.50 out of 12
Air Quality Not available.
Flu Activity Not available.
METAR KMFR 291953Z COR 34003KT 10SM CLR 29/11 A2993 RMK AO2 SLP121 FU NE-S T02940111

More Conditions Fewer Conditions

Pressure 29.89 in
Visibility 10.0 miles
Clouds Clear
Heat Index 83 °F
Dew Point Not available.
Humidity Not available.
Rainfall 0.00 in
Snow Depth Not available.
UV 9 out of 12
Pollen 6.50 out of 12
Air Quality Not available.
Flu Activity Not available.
METAR KMFR 291953Z COR 34003KT 10SM CLR 29/11 A2993 RMK AO2 SLP121 FU NE-S T02940111

More Conditions Fewer Conditions

10-Day Weather Forecast

Almanac

Astronomy

Aug. 29, 2014 Rise Set
Actual Time 6:34 AM PDT 7:50 PM PDT
Civil Twilight 6:05 AM PDT 8:19 PM PDT
Nautical Twilight 5:30 AM PDT 8:54 PM PDT
Astronomical Twilight 4:53 AM PDT 9:30 PM PDT
Moon 10:34 AM PDT 9:46 PM PDT
Length of Visible Light 14h 14m
Length of Day
13h 16m
Tomorrow will be 2m 43s shorter.
Waxing Crescent, 16% of the Moon is Illuminated
Today
Waxing Crescent
Sep 2
First Quarter
Sep 8
Full
Sep 15
Last Quarter
Sep 24
New

Today's Extremes

State Highs State Lows

Community

WunderPhotos

Upload Photos

1,748,337 photos uploaded!

WunderBlogs® & News

By Dr. Jeff Masters
Director of Meteorology, Weather Underground
By Kari Strenfel
Meteorologist, Weather Underground
By Christopher C. Burt
Weather Historian, Weather Underground
August 29, 2014
August 29, 2014
August 29, 2014

Nearby

Snow Depth

Station Depth Elevation
Fish Lake 0 in 4665 ft
Fourmile Lake 1 in 6000 ft
Cold Springs Camp 0 in 6100 ft
Sevenmile Marsh 0 in 6200 ft
Strawberry 0 in 5760 ft

Earthquake Activity

City Distance Mag. Time & Date
No recent earthquake activity has been reported nearby.
Minimum magnitude displayed is 2.5.

Coastal Water Temperatures

Place Temperature
No Stations Reporting

Nearby Weather Stations